Time;durP1;ratioP1;P1;durP2;ratioP2;P2;SDS_P1;SDS_P2;PMS_P1;PMS_P2;Temp;Humidity;BMP_temperature;BMP_pressure;BME280_temperature;BME280_humidity;BME280_pressure;Samples;Min_cycle;Max_cycle;Signal;HPM_P1;HPM_P2
2022/01/01 00:00:09;;;;;;;11.10;6.49;;;;;;;;;;357152;150;857346;-61
2022/01/01 00:01:11;;;;;;;11.07;7.03;;;;;;;;;;355866;149;857479;-60
2022/01/01 00:02:12;;;;;;;12.31;6.99;;;;;;;;;;354311;149;859965;-60
2022/01/01 00:11:59;;;;;;;10.40;5.91;;;;;;;3.77;81.10;98820.28;369996;141;881238;-60
2022/01/01 00:13:02;;;;;;;6.99;4.75;;;;;;;3.70;81.10;98823.66;362843;146;857186;-59
2022/01/01 00:14:04;;;;;;;6.35;4.15;;;;;;;3.68;81.01;98822.80;362302;147;858564;-59
2022/01/01 00:15:06;;;;;;;4.89;3.35;;;;;;;3.69;81.09;98819.38;363349;147;857196;-59
2022/01/01 00:16:09;;;;;;;5.21;3.29;;;;;;;3.73;81.13;98815.14;363079;146;857200;-59
2022/01/01 00:17:11;;;;;;;5.05;3.62;;;;;;;3.79;81.11;98817.70;360345;147;857251;-60
2022/01/01 00:18:13;;;;;;;5.49;3.67;;;;;;;3.88;81.02;98824.56;360539;147;865089;-59
2022/01/01 00:19:14;;;;;;;5.10;3.35;;;;;;;3.96;80.85;98817.73;364549;146;865183;-60
2022/01/01 00:20:16;;;;;;;4.21;2.51;;;;;;;;;;362088;147;865853;-60
2022/01/01 00:21:18;;;;;;;6.94;4.00;;;;;;;;;;360647;146;859003;-60
2022/01/01 00:22:19;;;;;;;7.34;4.04;;;;;;;;;;363875;146;864776;-59
2022/01/01 00:23:21;;;;;;;7.95;4.17;;;;;;;;;;362897;146;860486;-60
2022/01/01 00:24:22;;;;;;;6.05;4.09;;;;;;;;;;364280;147;865423;-60
2022/01/01 00:25:24;;;;;;;6.65;3.99;;;;;;;;;;364744;147;866489;-58
2022/01/01 00:26:26;;;;;;;8.01;4.54;;;;;;;;;;362938;147;866524;-59
2022/01/01 00:27:27;;;;;;;8.44;4.68;;;;;;;;;;364014;147;865545;-60
2022/01/01 00:28:29;;;;;;;9.74;4.16;;;;;;;;;;360148;147;865532;-58
2022/01/01 00:29:30;;;;;;;12.09;5.28;;;;;;;;;;363974;147;865611;-59
2022/01/01 00:30:32;;;;;;;10.07;5.27;;;;;;;;;;364561;146;865157;-59
2022/01/01 00:31:34;;;;;;;10.86;5.59;;;;;;;;;;365124;147;866704;-59
2022/01/01 00:32:35;;;;;;;10.29;5.99;;;;;;;;;;364170;147;865463;-60
2022/01/01 00:33:37;;;;;;;9.98;6.00;;;;;;;;;;364338;146;857259;-59
2022/01/01 00:34:38;;;;;;;9.97;5.51;;;;;;;;;;362200;145;857196;-59
2022/01/01 00:35:40;;;;;;;13.23;6.19;;;;;;;;;;364418;147;857088;-58
2022/01/01 00:36:42;;;;;;;10.63;6.09;;;;;;;;;;362864;146;857122;-58
2022/01/01 00:37:43;;;;;;;14.67;6.58;;;;;;;;;;364004;146;857626;-60
2022/01/01 00:38:45;;;;;;;12.61;6.41;;;;;;;;;;359885;147;865649;-58
2022/01/01 00:39:46;;;;;;;10.95;6.46;;;;;;;;;;362271;147;857753;-58
2022/01/01 00:40:48;;;;;;;14.97;6.21;;;;;;;;;;365112;146;859337;-59
2022/01/01 00:41:50;;;;;;;13.06;6.25;;;;;;;;;;362510;147;866933;-58
2022/01/01 00:42:51;;;;;;;14.21;6.44;;;;;;;;;;362967;146;857358;-58
2022/01/01 00:43:53;;;;;;;13.04;6.31;;;;;;;;;;363936;145;857370;-58
2022/01/01 00:44:54;;;;;;;12.40;6.15;;;;;;;;;;365031;147;857826;-58
2022/01/01 00:45:56;;;;;;;15.17;6.94;;;;;;;;;;362781;147;857393;-58
2022/01/01 00:46:57;;;;;;;12.79;6.15;;;;;;;;;;361961;146;865500;-59
2022/01/01 00:47:59;;;;;;;17.25;6.81;;;;;;;;;;362232;146;859845;-61
2022/01/01 00:49:00;;;;;;;14.24;6.39;;;;;;;;;;357017;147;857312;-58
2022/01/01 00:50:02;;;;;;;13.26;7.06;;;;;;;;;;351954;150;859005;-59
2022/01/01 00:51:04;;;;;;;15.24;7.61;;;;;;;;;;363564;146;857278;-57
2022/01/01 00:52:05;;;;;;;15.16;7.81;;;;;;;;;;363193;146;857185;-58
2022/01/01 00:53:07;;;;;;;17.11;7.42;;;;;;;;;;364755;147;857500;-61
2022/01/01 00:54:09;;;;;;;12.94;7.12;;;;;;;;;;363138;146;858100;-59
2022/01/01 00:55:10;;;;;;;14.36;7.09;;;;;;;;;;364166;146;864987;-59
2022/01/01 00:56:12;;;;;;;17.45;7.01;;;;;;;;;;363095;147;857321;-59
2022/01/01 00:57:14;;;;;;;15.54;7.41;;;;;;;;;;363835;147;857527;-58
2022/01/01 00:58:15;;;;;;;14.10;6.74;;;;;;;;;;362536;145;862264;-60
2022/01/01 00:59:17;;;;;;;18.04;7.53;;;;;;;;;;362808;146;857344;-59
2022/01/01 01:00:19;;;;;;;15.93;6.76;;;;;;;;;;364576;146;859432;-60
2022/01/01 01:01:20;;;;;;;16.34;7.47;;;;;;;;;;363212;145;866782;-60
2022/01/01 01:02:23;;;;;;;14.47;7.24;;;;;;;;;;362665;147;865314;-59
2022/01/01 01:03:25;;;;;;;14.13;7.12;;;;;;;;;;362629;147;857280;-59
2022/01/01 01:04:26;;;;;;;11.95;6.75;;;;;;;;;;363269;145;866711;-60
2022/01/01 01:05:28;;;;;;;14.52;6.15;;;;;;;;;;363712;145;859724;-59
2022/01/01 01:06:29;;;;;;;17.41;6.86;;;;;;;;;;363767;146;859694;-60
2022/01/01 01:07:31;;;;;;;11.31;5.61;;;;;;;;;;363155;146;865712;-59
2022/01/01 01:08:32;;;;;;;10.95;5.31;;;;;;;;;;363860;146;866718;-59
2022/01/01 01:09:34;;;;;;;8.21;4.71;;;;;;;;;;365870;147;867214;-59
2022/01/01 01:10:36;;;;;;;9.23;4.81;;;;;;;;;;363455;146;865245;-60
2022/01/01 01:11:43;;;;;;;9.38;5.73;;;;;;;;;;363689;145;865039;-59
2022/01/01 01:12:45;;;;;;;8.78;4.91;;;;;;;;;;363004;146;857211;-60
2022/01/01 01:13:50;;;;;;;8.61;5.14;;;;;;;;;;358797;147;859572;-60
2022/01/01 01:14:48;;;;;;;9.20;5.33;;;;;;;;;;362444;147;857290;-60
2022/01/01 01:15:49;;;;;;;7.58;4.38;;;;;;;;;;364221;145;859076;-59
2022/01/01 01:16:52;;;;;;;6.66;4.75;;;;;;;;;;363600;146;864786;-60
2022/01/01 01:17:53;;;;;;;7.61;4.41;;;;;;;;;;364700;146;858133;-60
2022/01/01 01:18:57;;;;;;;8.06;4.75;;;;;;;;;;365548;146;857246;-59
2022/01/01 01:19:58;;;;;;;6.24;4.95;;;;;;;;;;362957;147;865730;-59
2022/01/01 01:21:00;;;;;;;8.70;4.91;;;;;;;;;;363348;147;857137;-59
2022/01/01 01:22:02;;;;;;;5.96;3.72;;;;;;;;;;363709;146;864825;-59
2022/01/01 01:23:03;;;;;;;8.28;5.20;;;;;;;;;;363391;146;859020;-59
2022/01/01 01:24:05;;;;;;;6.23;3.91;;;;;;;;;;364253;147;864784;-60
2022/01/01 01:25:07;;;;;;;7.99;4.47;;;;;;;;;;365067;147;857739;-59
2022/01/01 01:26:09;;;;;;;6.22;4.15;;;;;;;;;;363812;146;859310;-59
2022/01/01 01:27:11;;;;;;;6.33;4.14;;;;;;;;;;364478;147;858949;-59
2022/01/01 01:28:14;;;;;;;7.14;4.34;;;;;;;;;;365078;147;863165;-59
2022/01/01 01:29:16;;;;;;;7.73;4.94;;;;;;;;;;363741;146;859354;-59
2022/01/01 01:30:18;;;;;;;5.25;3.92;;;;;;;;;;363322;146;857246;-59
2022/01/01 01:31:20;;;;;;;7.71;3.92;;;;;;;;;;363888;147;857764;-59
2022/01/01 01:32:21;;;;;;;10.59;4.26;;;;;;;;;;363718;147;856061;-58
2022/01/01 01:33:23;;;;;;;7.14;4.21;;;;;;;;;;363884;146;856795;-58
2022/01/01 01:34:24;;;;;;;8.09;4.24;;;;;;;;;;363889;146;863892;-59
2022/01/01 01:35:26;;;;;;;7.99;4.74;;;;;;;;;;364482;146;863935;-59
2022/01/01 01:36:27;;;;;;;6.09;4.19;;;;;;;;;;365289;146;855943;-59
2022/01/01 01:37:29;;;;;;;7.04;4.21;;;;;;;;;;363294;146;863570;-58
2022/01/01 01:38:36;;;;;;;6.82;3.80;;;;;;;;;;365935;147;856076;-58
2022/01/01 01:39:34;;;;;;;6.69;4.13;;;;;;;;;;362836;146;863519;-58
2022/01/01 01:40:35;;;;;;;6.56;4.21;;;;;;;;;;363065;146;855995;-58
2022/01/01 01:41:37;;;;;;;7.30;4.31;;;;;;;;;;362249;147;863650;-58
2022/01/01 01:42:39;;;;;;;8.99;4.44;;;;;;;;;;363683;147;856134;-59
2022/01/01 01:43:40;;;;;;;7.90;4.79;;;;;;;;;;365417;146;863581;-60
2022/01/01 01:44:45;;;;;;;7.78;4.74;;;;;;;;;;362276;146;863633;-59
2022/01/01 01:45:47;;;;;;;7.86;4.58;;;;;;;;;;364954;147;863555;-59
2022/01/01 01:46:49;;;;;;;7.79;4.47;;;;;;;;;;365065;144;856330;-59
2022/01/01 01:47:50;;;;;;;7.51;4.70;;;;;;;;;;363619;147;856188;-59
2022/01/01 01:48:52;;;;;;;7.40;4.31;;;;;;;;;;365377;146;862011;-59
2022/01/01 01:51:55;;;;;;;7.51;4.58;;;;;;;;;;369923;142;978560;-62
2022/01/01 01:52:58;;;;;;;8.44;4.91;;;;;;;;;;364751;145;865796;-63
2022/01/01 01:53:59;;;;;;;8.97;4.75;;;;;;;;;;363621;145;863093;-65
2022/01/01 01:55:02;;;;;;;7.94;4.94;;;;;;;;;;361918;146;860227;-63
2022/01/01 01:56:04;;;;;;;7.57;4.67;;;;;;;;;;362375;146;859398;-62
2022/01/01 01:57:05;;;;;;;10.11;5.71;;;;;;;;;;365340;145;857878;-65
2022/01/01 01:58:07;;;;;;;7.75;5.00;;;;;;;;;;364770;146;865019;-63
2022/01/01 01:59:08;;;;;;;9.46;4.99;;;;;;;;;;363585;147;857407;-63
2022/01/01 02:01:34;;;;;;;7.19;5.07;;;;;;;;;;358850;147;857715;-64
2022/01/01 02:02:36;;;;;;;7.77;4.95;;;;;;;;;;363987;146;858140;-64
2022/01/01 02:03:37;;;;;;;6.56;4.48;;;;;;;;;;364750;146;865343;-65
2022/01/01 02:04:39;;;;;;;8.34;4.76;;;;;;;;;;363911;145;857197;-65
2022/01/01 02:05:40;;;;;;;7.28;5.11;;;;;;;;;;366259;146;857007;-64
2022/01/01 02:06:42;;;;;;;6.72;4.39;;;;;;;;;;365221;145;864878;-63
2022/01/01 02:07:43;;;;;;;8.61;4.91;;;;;;;;;;364991;146;865866;-63
2022/01/01 02:08:45;;;;;;;10.15;4.52;;;;;;;;;;359712;147;865750;-64
2022/01/01 02:09:47;;;;;;;8.35;5.27;;;;;;;;;;364183;147;859733;-64
2022/01/01 02:10:51;;;;;;;7.69;5.29;;;;;;;;;;359165;146;865267;-64
2022/01/01 02:11:53;;;;;;;12.46;5.47;;;;;;;;;;358056;149;864836;-64
2022/01/01 02:12:56;;;;;;;9.02;5.48;;;;;;;;;;358556;148;859545;-63
2022/01/01 02:16:50;;;;;;;8.39;6.33;;;;;;;;;;360497;148;866807;-63
2022/01/01 02:17:17;;;;;;;7.46;4.89;;;;;;;;;;354041;148;866074;-63
2022/01/01 02:18:18;;;;;;;6.85;4.63;;;;;;;;;;357597;147;857873;-63
2022/01/01 02:19:22;;;;;;;8.71;5.54;;;;;;;;;;357954;148;864842;-63
2022/01/01 02:20:25;;;;;;;10.11;5.79;;;;;;;;;;358579;148;858145;-63
2022/01/01 02:21:28;;;;;;;6.49;4.81;;;;;;;;;;358796;148;866750;-62
2022/01/01 02:22:37;;;;;;;8.06;4.56;;;;;;;;;;357838;147;866587;-65
2022/01/01 02:23:42;;;;;;;7.31;5.03;;;;;;;;;;358466;148;865622;-62
2022/01/01 02:24:42;;;;;;;9.58;5.73;;;;;;;;;;358117;147;857775;-63
2022/01/01 02:25:43;;;;;;;8.98;6.18;;;;;;;;;;357544;147;857324;-63
2022/01/01 02:26:45;;;;;;;8.00;5.28;;;;;;;;;;358369;147;859145;-63
2022/01/01 02:27:47;;;;;;;8.55;5.48;;;;;;;;;;358808;147;867034;-63
2022/01/01 02:28:48;;;;;;;10.79;6.69;;;;;;;;;;359401;147;857398;-62
2022/01/01 02:29:50;;;;;;;9.43;6.69;;;;;;;;;;357513;148;865862;-62
2022/01/01 02:30:52;;;;;;;11.03;5.71;;;;;;;;;;359271;147;859701;-63
2022/01/01 02:31:53;;;;;;;6.48;4.05;;;;;;;;;;357223;147;856737;-62
2022/01/01 02:32:55;;;;;;;10.53;6.31;;;;;;;;;;356294;147;864923;-64
2022/01/01 02:33:59;;;;;;;11.27;6.91;;;;;;;;;;359796;147;857956;-64
2022/01/01 02:35:00;;;;;;;9.39;6.33;;;;;;;;;;357387;147;864838;-63
2022/01/01 02:36:02;;;;;;;9.98;6.36;;;;;;;;;;358265;147;856316;-64
2022/01/01 02:37:04;;;;;;;8.35;6.57;;;;;;;;;;357365;148;863378;-63
2022/01/01 02:38:06;;;;;;;7.61;5.87;;;;;;;;;;356217;147;857305;-63
2022/01/01 02:39:13;;;;;;;8.89;6.58;;;;;;;;;;360954;147;859081;-64
2022/01/01 02:40:16;;;;;;;8.89;5.97;;;;;;;;;;355734;148;858000;-64
2022/01/01 02:41:18;;;;;;;9.05;5.29;;;;;;;;;;357151;148;857502;-63
2022/01/01 02:42:22;;;;;;;9.11;6.96;;;;;;;;;;358331;147;857190;-63
2022/01/01 02:43:25;;;;;;;8.80;6.37;;;;;;;;;;358002;148;857881;-64
2022/01/01 02:44:27;;;;;;;10.92;7.01;;;;;;;;;;355706;147;857211;-63
2022/01/01 02:45:30;;;;;;;11.45;7.72;;;;;;;;;;357284;147;857317;-64
2022/01/01 02:46:33;;;;;;;9.61;6.81;;;;;;;;;;358741;147;864982;-64
2022/01/01 02:47:35;;;;;;;10.41;6.68;;;;;;;;;;358860;147;857330;-64
2022/01/01 02:48:37;;;;;;;8.89;6.87;;;;;;;;;;357708;148;857790;-64
2022/01/01 02:49:39;;;;;;;9.03;6.25;;;;;;;;;;359096;147;857838;-65
2022/01/01 02:50:40;;;;;;;9.53;5.95;;;;;;;;;;359076;147;859067;-63
2022/01/01 02:51:42;;;;;;;10.28;7.01;;;;;;;;;;360222;147;857220;-64
2022/01/01 02:52:44;;;;;;;10.20;7.24;;;;;;;;;;358504;149;861525;-64
2022/01/01 02:53:45;;;;;;;11.04;7.14;;;;;;;;;;357347;149;859764;-65
2022/01/01 02:54:47;;;;;;;9.81;6.81;;;;;;;;;;355829;148;859111;-65
2022/01/01 02:55:48;;;;;;;12.37;8.01;;;;;;;;;;358476;148;857342;-64
2022/01/01 02:56:50;;;;;;;10.91;7.81;;;;;;;;;;357134;148;857341;-64
2022/01/01 02:57:51;;;;;;;11.50;6.91;;;;;;;;;;356896;149;864972;-64
2022/01/01 02:58:53;;;;;;;11.33;7.76;;;;;;;;;;355221;148;866712;-65
2022/01/01 02:59:55;;;;;;;8.91;6.75;;;;;;;;;;356495;148;866608;-64
2022/01/01 03:00:56;;;;;;;11.60;7.44;;;;;;;;;;356889;148;866764;-65
2022/01/01 03:01:58;;;;;;;9.21;6.76;;;;;;;;;;356205;148;865022;-64
2022/01/01 03:02:59;;;;;;;11.07;7.35;;;;;;;;;;355096;149;857403;-65
2022/01/01 03:04:01;;;;;;;10.78;8.34;;;;;;;;;;357061;148;857759;-63
2022/01/01 03:05:03;;;;;;;11.97;7.13;;;;;;;;;;356277;148;865612;-64
2022/01/01 03:06:05;;;;;;;10.65;6.85;;;;;;;;;;355034;148;864864;-63
2022/01/01 03:07:07;;;;;;;15.66;9.21;;;;;;;;;;357631;148;857221;-63
2022/01/01 03:08:08;;;;;;;11.93;8.42;;;;;;;;;;357197;149;865149;-65
2022/01/01 03:09:10;;;;;;;11.51;8.17;;;;;;;;;;356068;149;857245;-63
2022/01/01 03:10:12;;;;;;;11.38;8.20;;;;;;;;;;357036;148;858371;-63
2022/01/01 03:11:13;;;;;;;13.01;8.36;;;;;;;;;;355703;150;865021;-63
2022/01/01 03:12:15;;;;;;;13.21;8.71;;;;;;;;;;355049;149;857402;-63
2022/01/01 03:13:17;;;;;;;12.19;8.08;;;;;;;;;;356617;149;865133;-63
2022/01/01 03:14:18;;;;;;;12.55;8.33;;;;;;;;;;354822;148;865527;-63
2022/01/01 03:15:20;;;;;;;11.59;8.34;;;;;;;;;;356205;149;857217;-63
2022/01/01 03:16:23;;;;;;;12.59;7.92;;;;;;;;;;354738;148;865917;-63
2022/01/01 03:17:24;;;;;;;11.49;7.53;;;;;;;;;;357544;148;858125;-63
2022/01/01 03:18:26;;;;;;;13.68;8.59;;;;;;;;;;356688;148;857580;-63
2022/01/01 03:19:27;;;;;;;12.72;7.77;;;;;;;;;;355067;148;864905;-64
2022/01/01 03:20:29;;;;;;;11.66;8.26;;;;;;;;;;356337;148;865083;-65
2022/01/01 03:21:31;;;;;;;13.71;9.04;;;;;;;;;;356221;148;864963;-64
2022/01/01 03:22:33;;;;;;;13.29;9.45;;;;;;;;;;356756;148;864989;-64
2022/01/01 03:23:34;;;;;;;12.97;8.94;;;;;;;;;;355933;148;857288;-63
2022/01/01 03:24:36;;;;;;;12.54;9.01;;;;;;;;;;357003;148;864960;-64
2022/01/01 03:25:37;;;;;;;14.04;9.16;;;;;;;;;;356047;148;868409;-64
2022/01/01 03:26:39;;;;;;;11.08;6.81;;;;;;;;;;355245;149;857298;-64
2022/01/01 03:27:40;;;;;;;7.86;5.77;;;;;;;;;;356028;148;857268;-64
2022/01/01 03:28:42;;;;;;;12.29;8.39;;;;;;;;;;356662;148;859071;-64
2022/01/01 03:29:44;;;;;;;12.25;9.31;;;;;;;;;;358184;148;866352;-64
2022/01/01 03:30:45;;;;;;;12.93;8.93;;;;;;;;;;356105;148;865873;-64
2022/01/01 03:31:47;;;;;;;14.25;9.19;;;;;;;;;;357549;148;865064;-64
2022/01/01 03:32:48;;;;;;;13.61;8.96;;;;;;;;;;356131;149;857393;-64
2022/01/01 03:33:50;;;;;;;11.44;7.69;;;;;;;;;;354862;148;858124;-64
2022/01/01 03:34:52;;;;;;;12.59;8.72;;;;;;;;;;355749;148;860202;-64
2022/01/01 03:35:54;;;;;;;12.63;8.75;;;;;;;;;;355290;148;865834;-64
2022/01/01 03:36:55;;;;;;;6.27;4.54;;;;;;;;;;356725;149;856063;-64
2022/01/01 03:37:57;;;;;;;12.91;8.38;;;;;;;;;;357142;148;857365;-64
2022/01/01 03:38:59;;;;;;;11.82;8.26;;;;;;;;;;357367;148;863811;-64
2022/01/01 03:40:02;;;;;;;13.49;8.98;;;;;;;;;;355621;149;856405;-64
2022/01/01 03:41:03;;;;;;;11.98;8.27;;;;;;;;;;355486;148;856147;-64
2022/01/01 03:42:05;;;;;;;11.27;8.29;;;;;;;;;;356311;148;856657;-64
2022/01/01 03:43:07;;;;;;;12.28;8.44;;;;;;;;;;355539;148;856491;-65
2022/01/01 03:44:08;;;;;;;12.56;8.34;;;;;;;;;;353530;148;863748;-64
2022/01/01 03:45:10;;;;;;;12.67;8.82;;;;;;;;;;355818;148;863970;-65
2022/01/01 03:46:12;;;;;;;14.33;8.29;;;;;;;;;;356413;150;863870;-65
2022/01/01 03:47:14;;;;;;;12.68;8.40;;;;;;;;;;353845;149;856193;-64
2022/01/01 03:48:15;;;;;;;11.41;7.76;;;;;;;;;;354765;149;865062;-64
2022/01/01 03:49:17;;;;;;;10.65;8.03;;;;;;;;;;356761;148;856376;-64
2022/01/01 03:52:13;;;;;;;9.69;7.84;;;;;;;6.84;87.15;98689.41;375279;141;871619;-58
2022/01/01 03:53:16;;;;;;;8.09;5.93;;;;;;;6.76;87.01;98686.08;365903;144;860574;-60
2022/01/01 03:54:20;;;;;;;7.56;4.33;;;;;;;6.81;86.99;98704.02;371151;144;856478;-57
2022/01/01 03:55:21;;;;;;;8.34;5.44;;;;;;;6.86;86.73;98694.52;371618;144;856986;-58
2022/01/01 03:56:24;;;;;;;6.31;4.03;;;;;;;6.92;86.37;98699.61;366378;144;864004;-58
2022/01/01 03:57:25;;;;;;;5.61;4.15;;;;;;;;;;366287;144;856068;-58
2022/01/01 03:58:27;;;;;;;7.53;4.74;;;;;;;;;;358981;147;864142;-58
2022/01/01 03:59:28;;;;;;;5.78;4.41;;;;;;;;;;367775;144;856049;-59
2022/01/01 04:00:30;;;;;;;7.72;5.26;;;;;;;;;;367549;144;856197;-58
2022/01/01 04:01:31;;;;;;;8.16;5.52;;;;;;;;;;369515;144;863486;-58
2022/01/01 04:02:33;;;;;;;8.38;5.79;;;;;;;;;;368435;144;856191;-57
2022/01/01 04:03:35;;;;;;;9.24;6.12;;;;;;;;;;367428;144;856587;-57
2022/01/01 04:04:36;;;;;;;8.60;6.13;;;;;;;;;;366567;144;856335;-58
2022/01/01 04:05:40;;;;;;;9.25;6.11;;;;;;;;;;368927;144;856376;-57
2022/01/01 04:06:41;;;;;;;9.75;6.91;;;;;;;;;;367184;144;863854;-57
2022/01/01 04:07:43;;;;;;;10.10;6.82;;;;;;;;;;367118;144;856601;-58
2022/01/01 04:08:44;;;;;;;9.01;5.51;;;;;;;;;;366379;144;856904;-58
2022/01/01 04:11:41;;;;;;;8.49;6.24;;;;;;;7.21;86.26;98718.08;373034;141;874572;-56
2022/01/01 04:12:43;;;;;;;8.53;5.91;;;;;;;7.15;86.22;98719.04;364038;147;858919;-58
2022/01/01 04:13:45;;;;;;;6.53;4.58;;;;;;;7.18;86.28;98729.30;365289;146;859425;-57
2022/01/01 04:14:47;;;;;;;5.85;4.19;;;;;;;7.12;86.59;98729.38;365017;147;864754;-60
2022/01/01 04:15:49;;;;;;;7.29;4.49;;;;;;;7.06;86.74;98725.15;362172;148;865807;-60
2022/01/01 04:16:53;;;;;;;4.85;4.06;;;;;;;7.18;86.78;98729.30;364247;146;856749;-63
2022/01/01 04:18:01;;;;;;;5.31;3.99;;;;;;;7.27;86.33;98731.73;363930;146;858786;-61
2022/01/01 04:18:58;;;;;;;6.80;4.01;;;;;;;7.35;85.80;98734.19;363833;147;865762;-59
2022/01/01 04:20:00;;;;;;;6.35;4.24;;;;;;;7.41;85.39;98733.26;363433;147;864921;-58
2022/01/01 04:21:02;;;;;;;5.81;3.84;;;;;;;7.52;85.04;98730.55;362173;146;864645;-58
2022/01/01 04:22:04;;;;;;;5.90;3.73;;;;;;;7.55;84.51;98717.61;356741;150;865073;-59
2022/01/01 04:23:07;;;;;;;5.27;3.79;;;;;;;;;;354942;147;857378;-58
2022/01/01 04:24:08;;;;;;;5.97;3.39;;;;;;;;;;364172;146;864908;-59
2022/01/01 04:25:10;;;;;;;6.35;3.79;;;;;;;;;;362433;147;864886;-59
2022/01/01 04:26:14;;;;;;;7.48;4.26;;;;;;;;;;364250;147;866371;-57
2022/01/01 04:27:15;;;;;;;5.99;4.20;;;;;;;;;;352968;151;868690;-59
2022/01/01 04:28:16;;;;;;;6.26;4.79;;;;;;;;;;355267;149;860997;-58
2022/01/01 04:29:18;;;;;;;7.43;4.43;;;;;;;;;;363269;147;857217;-62
2022/01/01 04:30:21;;;;;;;7.02;4.65;;;;;;;;;;355392;150;857291;-59
2022/01/01 04:31:23;;;;;;;5.15;4.19;;;;;;;;;;363556;146;865364;-59
2022/01/01 04:32:24;;;;;;;7.47;4.72;;;;;;;;;;364189;147;858746;-59
2022/01/01 04:33:26;;;;;;;5.34;4.42;;;;;;;;;;363699;146;864876;-59
2022/01/01 04:34:27;;;;;;;5.51;4.53;;;;;;;;;;362670;145;857211;-59
2022/01/01 04:35:29;;;;;;;7.74;4.88;;;;;;;;;;365029;146;858049;-58
2022/01/01 04:36:31;;;;;;;5.69;4.71;;;;;;;;;;363151;146;857832;-58
2022/01/01 04:37:33;;;;;;;6.15;4.87;;;;;;;;;;361778;147;864762;-58
2022/01/01 04:38:40;;;;;;;8.71;5.35;;;;;;;;;;363156;145;866005;-58
2022/01/01 04:39:41;;;;;;;6.82;5.19;;;;;;;;;;362494;147;859076;-59
2022/01/01 04:40:42;;;;;;;6.71;4.81;;;;;;;;;;364692;147;857638;-59
2022/01/01 04:41:45;;;;;;;6.52;5.24;;;;;;;;;;363081;145;864939;-58
2022/01/01 04:42:46;;;;;;;5.64;4.44;;;;;;;;;;363363;147;859421;-58
2022/01/01 04:43:48;;;;;;;6.14;4.76;;;;;;;;;;359172;150;857377;-58
2022/01/01 04:44:49;;;;;;;7.34;4.78;;;;;;;;;;362440;146;859907;-59
2022/01/01 04:45:51;;;;;;;8.26;5.60;;;;;;;;;;364365;147;864698;-58
2022/01/01 04:46:53;;;;;;;7.85;5.06;;;;;;;;;;365521;146;859059;-63
2022/01/01 04:47:54;;;;;;;6.81;4.99;;;;;;;;;;364221;146;864996;-64
2022/01/01 04:48:56;;;;;;;7.16;5.17;;;;;;;;;;365934;145;864896;-59
2022/01/01 04:49:57;;;;;;;6.84;5.26;;;;;;;;;;364420;146;867347;-59
2022/01/01 04:50:59;;;;;;;8.13;5.06;;;;;;;;;;364257;147;863122;-59
2022/01/01 04:52:01;;;;;;;7.18;4.95;;;;;;;;;;360487;145;866493;-58
2022/01/01 04:53:02;;;;;;;6.35;4.68;;;;;;;;;;361589;147;861422;-62
2022/01/01 04:54:09;;;;;;;6.25;5.06;;;;;;;;;;364968;146;859435;-59
2022/01/01 04:55:07;;;;;;;7.71;5.20;;;;;;;;;;363319;146;858332;-58
2022/01/01 04:56:09;;;;;;;6.41;4.83;;;;;;;;;;365030;146;858169;-58
2022/01/01 04:57:11;;;;;;;5.74;4.64;;;;;;;;;;364060;146;860889;-59
2022/01/01 04:58:13;;;;;;;4.27;3.58;;;;;;;;;;363278;146;857361;-60
2022/01/01 04:59:15;;;;;;;6.43;4.59;;;;;;;;;;363515;146;857405;-58
2022/01/01 05:00:18;;;;;;;6.44;4.74;;;;;;;;;;361161;146;864946;-59
2022/01/01 05:01:20;;;;;;;6.75;4.81;;;;;;;;;;365278;147;857785;-58
2022/01/01 05:02:22;;;;;;;6.23;4.55;;;;;;;;;;362222;146;866506;-58
2022/01/01 05:03:23;;;;;;;5.99;4.06;;;;;;;;;;363385;147;857110;-57
2022/01/01 05:04:25;;;;;;;6.59;4.36;;;;;;;;;;349805;150;864769;-57
2022/01/01 05:05:27;;;;;;;5.89;4.95;;;;;;;;;;354508;151;865103;-58
2022/01/01 05:06:28;;;;;;;6.19;4.76;;;;;;;;;;362878;145;866551;-58
2022/01/01 05:07:30;;;;;;;5.99;4.62;;;;;;;;;;364782;146;866470;-59
2022/01/01 05:08:31;;;;;;;7.14;4.70;;;;;;;;;;364055;146;859276;-59
2022/01/01 05:09:33;;;;;;;6.03;4.59;;;;;;;;;;363782;145;857859;-59
2022/01/01 05:10:34;;;;;;;6.49;4.91;;;;;;;;;;362132;146;864964;-64
2022/01/01 05:11:36;;;;;;;5.74;4.54;;;;;;;;;;364728;146;860233;-62
2022/01/01 05:12:38;;;;;;;6.93;4.40;;;;;;;;;;360885;147;857641;-60
2022/01/01 05:13:39;;;;;;;6.69;4.34;;;;;;;;;;363036;145;857156;-59
2022/01/01 05:14:41;;;;;;;5.94;4.41;;;;;;;;;;365250;147;864755;-60
2022/01/01 05:15:42;;;;;;;5.16;4.56;;;;;;;;;;363235;147;866348;-61
2022/01/01 05:16:45;;;;;;;4.83;4.04;;;;;;;;;;364709;145;859100;-59
2022/01/01 05:17:46;;;;;;;4.61;4.10;;;;;;;;;;364915;146;865604;-60
2022/01/01 05:18:48;;;;;;;7.91;4.14;;;;;;;;;;362175;147;859425;-60
2022/01/01 05:19:49;;;;;;;6.17;4.26;;;;;;;;;;364516;146;857203;-59
2022/01/01 05:20:51;;;;;;;5.16;4.21;;;;;;;;;;365375;146;864742;-60
2022/01/01 05:21:55;;;;;;;5.10;4.18;;;;;;;;;;361996;146;864730;-59
2022/01/01 05:22:57;;;;;;;4.62;4.02;;;;;;;;;;365310;146;857609;-59
2022/01/01 05:24:00;;;;;;;5.03;3.54;;;;;;;;;;362652;145;859212;-59
2022/01/01 05:25:01;;;;;;;5.32;4.19;;;;;;;;;;365564;147;857296;-60
2022/01/01 05:26:03;;;;;;;5.24;4.25;;;;;;;;;;365510;146;859273;-59
2022/01/01 05:27:04;;;;;;;5.16;3.44;;;;;;;;;;364063;145;864906;-60
2022/01/01 05:28:06;;;;;;;5.90;4.02;;;;;;;;;;364746;146;858469;-60
2022/01/01 05:29:07;;;;;;;7.26;4.12;;;;;;;;;;366046;147;858422;-60
2022/01/01 05:30:10;;;;;;;5.31;4.08;;;;;;;;;;364420;146;857337;-60
2022/01/01 05:31:11;;;;;;;5.27;3.96;;;;;;;;;;357155;149;864908;-67
2022/01/01 05:32:13;;;;;;;5.41;3.75;;;;;;;;;;364116;147;859236;-59
2022/01/01 05:33:15;;;;;;;4.32;3.61;;;;;;;;;;364019;146;859316;-58
2022/01/01 05:34:17;;;;;;;3.37;2.62;;;;;;;;;;363279;146;859400;-63
2022/01/01 05:35:18;;;;;;;4.90;3.90;;;;;;;;;;364326;147;858174;-65
2022/01/01 05:36:20;;;;;;;5.63;4.10;;;;;;;;;;366035;146;856310;-63
2022/01/01 05:37:21;;;;;;;4.60;3.53;;;;;;;;;;356979;149;863628;-65
2022/01/01 05:38:23;;;;;;;5.19;3.86;;;;;;;;;;361921;146;856301;-66
2022/01/01 05:39:24;;;;;;;5.57;4.02;;;;;;;;;;363304;146;856446;-58
2022/01/01 05:40:26;;;;;;;5.09;3.48;;;;;;;;;;364800;146;857183;-67
2022/01/01 05:41:28;;;;;;;4.06;3.18;;;;;;;;;;363300;145;863662;-68
2022/01/01 05:42:29;;;;;;;4.59;3.30;;;;;;;;;;363853;147;856724;-68
2022/01/01 05:43:31;;;;;;;4.51;3.46;;;;;;;;;;366260;147;856500;-66
2022/01/01 05:44:32;;;;;;;3.68;3.01;;;;;;;;;;365513;145;856311;-66
2022/01/01 05:45:34;;;;;;;2.87;2.60;;;;;;;;;;363603;146;863593;-64
2022/01/01 05:46:36;;;;;;;4.23;2.90;;;;;;;;;;364899;146;856421;-63
2022/01/01 05:47:37;;;;;;;4.71;3.19;;;;;;;;;;363354;146;856047;-61
2022/01/01 05:48:39;;;;;;;3.65;3.01;;;;;;;;;;363547;144;856208;-61
2022/01/01 05:51:37;;;;;;;3.06;2.54;;;;;;;7.21;83.78;98808.19;370610;142;879947;-64
2022/01/01 05:52:40;;;;;;;2.03;1.78;;;;;;;7.13;83.90;98809.14;360480;146;857894;-63
2022/01/01 05:53:42;;;;;;;2.65;1.81;;;;;;;7.14;83.94;98830.59;359930;147;859032;-63
2022/01/01 05:54:44;;;;;;;2.20;1.82;;;;;;;7.10;84.16;98827.19;362629;146;865114;-62
2022/01/01 05:55:47;;;;;;;1.82;1.50;;;;;;;7.12;83.63;98830.59;361222;146;866661;-63
2022/01/01 05:56:48;;;;;;;2.14;1.43;;;;;;;7.23;83.52;98822.77;360740;147;864976;-62
2022/01/01 05:57:50;;;;;;;2.21;1.37;;;;;;;7.33;83.27;98832.95;362200;147;858627;-59
2022/01/01 05:58:52;;;;;;;2.05;1.42;;;;;;;7.16;82.76;98837.41;361938;147;865029;-64
2022/01/01 05:59:54;;;;;;;2.05;1.40;;;;;;;7.34;82.77;98838.05;362897;147;865619;-60
2022/01/01 06:00:55;;;;;;;1.71;1.10;;;;;;;;;;360935;147;868498;-69
2022/01/01 06:01:57;;;;;;;1.70;1.15;;;;;;;;;;356355;148;859311;-60
2022/01/01 06:02:59;;;;;;;2.24;1.35;;;;;;;;;;355239;148;858534;-59
2022/01/01 06:04:00;;;;;;;1.69;1.45;;;;;;;;;;361306;147;864744;-59
2022/01/01 06:05:02;;;;;;;1.68;1.32;;;;;;;;;;361971;147;857179;-59
2022/01/01 06:06:04;;;;;;;2.01;1.46;;;;;;;;;;363952;146;860135;-59
2022/01/01 06:07:07;;;;;;;1.80;1.38;;;;;;;;;;364114;147;865244;-58
2022/01/01 06:08:08;;;;;;;1.58;1.42;;;;;;;;;;362074;147;864858;-60
2022/01/01 06:09:10;;;;;;;1.69;1.26;;;;;;;;;;361617;146;859187;-60
2022/01/01 06:10:12;;;;;;;1.78;1.57;;;;;;;;;;364682;146;857272;-60
2022/01/01 06:11:13;;;;;;;1.98;1.25;;;;;;;;;;363718;146;857268;-60
2022/01/01 06:12:15;;;;;;;1.99;1.27;;;;;;;;;;363780;146;863936;-59
2022/01/01 06:13:16;;;;;;;1.79;1.23;;;;;;;;;;365504;147;856656;-59
2022/01/01 06:14:20;;;;;;;2.33;1.56;;;;;;;;;;365628;147;856349;-61
2022/01/01 06:15:21;;;;;;;1.36;1.17;;;;;;;;;;365692;147;857249;-60